Providence, Rhode Island
Traffic Map
Current Weather Conditions
Providence, Rhode Island
Overcast
Overcast

Feels Like: -2°
Wind Chill: -2° Ceiling: 3200
Heat Index: Visibility: 10mi
Dew Point: -6° Wind: 12mph
Humidity: 57% Direction: 310° (NW)
Pressure: 29.96in Gusts: 0mph
Raw Report DataKPVD 191651Z 31010KT 10SM BKN032 OVC045 02/M06 A2996 RMK AO2 SLP145 T00221056
Traffic Incident Summary
Active as of:
Severity:
Category:
InformationThere was an issue retrieving the traffic information for this location. Please try a different location or try again shortly.
Advertisements
Track Severe Weather on mobile